Time;durP1;ratioP1;P1;durP2;ratioP2;P2;SDS_P1;SDS_P2;PMS_P1;PMS_P2;Temp;Humidity;BMP_temperature;BMP_pressure;BME280_temperature;BME280_humidity;BME280_pressure;Samples;Min_cycle;Max_cycle;Signal;HPM_P1;HPM_P2
2023/11/11 00:01:00;;;;;;;0.10;0.10;;;;;;;4.15;86.94;99856.81;4958566;28;20416;-69
2023/11/11 00:03:27;;;;;;;0.10;0.10;;;;;;;4.24;86.90;99860.00;4957989;28;20157;-69
2023/11/11 00:05:53;;;;;;;0.10;0.10;;;;;;;4.24;86.90;99841.88;4960152;28;20165;-69
2023/11/11 00:08:22;;;;;;;0.10;0.10;;;;;;;4.27;86.33;99846.00;4963069;28;20061;-69
2023/11/11 00:10:50;;;;;;;0.10;0.10;;;;;;;4.28;86.30;99844.09;4962828;28;20137;-69
2023/11/11 00:13:15;;;;;;;;;;;;;;;4.24;86.14;99858.09;4963151;28;20049;-69
2023/11/11 00:15:43;;;;;;;0.10;0.10;;;;;;;4.23;86.18;99853.75;4958496;28;19934;-69
2023/11/11 00:18:09;;;;;;;;;;;;;;;4.17;86.17;99848.44;4957045;28;20121;-69
2023/11/11 00:20:35;;;;;;;0.10;0.10;;;;;;;3.99;86.73;99841.22;4942740;28;20015;-69
2023/11/11 00:23:02;;;;;;;0.10;0.10;;;;;;;3.85;87.17;99838.69;4956225;28;20475;-69
2023/11/11 00:25:28;;;;;;;0.10;0.10;;;;;;;3.77;87.83;99837.13;4976154;28;20061;-69
2023/11/11 00:27:56;;;;;;;0.10;0.10;;;;;;;3.71;88.41;99842.63;4965978;28;20039;-69
2023/11/11 00:30:22;;;;;;;;;;;;;;;3.66;88.53;99841.41;4980629;28;20093;-69
2023/11/11 00:32:51;;;;;;;0.00;0.00;;;;;;;3.62;88.66;99855.66;4978999;28;19932;-69
2023/11/11 00:35:18;;;;;;;0.10;0.10;;;;;;;3.63;88.74;99835.66;4966904;28;20161;-69
2023/11/11 00:37:45;;;;;;;0.10;0.10;;;;;;;3.68;88.85;99838.50;4963309;28;20100;-70
2023/11/11 00:40:13;;;;;;;0.10;0.10;;;;;;;3.74;88.71;99837.56;4966868;28;20100;-69
2023/11/11 00:42:40;;;;;;;0.10;0.10;;;;;;;3.81;88.44;99835.63;4958481;28;20073;-69
2023/11/11 00:45:09;;;;;;;0.10;0.10;;;;;;;3.91;88.15;99842.38;5000998;28;20053;-69
2023/11/11 00:47:36;;;;;;;0.10;0.10;;;;;;;3.99;87.68;99825.00;4978536;28;20054;-69
2023/11/11 00:50:05;;;;;;;0.10;0.10;;;;;;;4.03;87.40;99828.88;4975471;28;20042;-70
2023/11/11 00:52:33;;;;;;;0.10;0.10;;;;;;;4.10;86.88;99830.44;4958118;28;20225;-71
2023/11/11 00:55:00;;;;;;;0.10;0.10;;;;;;;4.16;86.87;99822.44;4954002;28;20137;-70
2023/11/11 00:57:26;;;;;;;0.10;0.10;;;;;;;4.20;86.75;99823.59;4987876;28;20050;-69
2023/11/11 00:59:52;;;;;;;0.10;0.10;;;;;;;4.22;86.58;99818.81;4962363;28;20150;-69
2023/11/11 01:02:20;;;;;;;0.10;0.10;;;;;;;4.25;86.17;99818.34;4957430;28;20097;-69
2023/11/11 01:04:46;;;;;;;;;;;;;;;4.24;86.28;99812.09;4962442;28;20062;-69
2023/11/11 01:07:12;;;;;;;0.10;0.10;;;;;;;4.23;85.91;99810.44;4956669;28;19926;-70
2023/11/11 01:09:39;;;;;;;0.10;0.10;;;;;;;4.22;85.92;99811.50;4941775;28;20042;-69
2023/11/11 01:12:05;;;;;;;0.10;0.10;;;;;;;4.25;86.14;99816.44;4975982;28;20431;-71
2023/11/11 01:14:34;;;;;;;0.10;0.10;;;;;;;4.24;86.87;99822.91;4968726;28;20528;-70
2023/11/11 01:17:02;;;;;;;0.10;0.10;;;;;;;4.25;86.72;99819.16;4970894;28;20050;-70
2023/11/11 01:19:30;;;;;;;0.10;0.10;;;;;;;4.26;86.28;99820.81;4976255;28;20533;-71
2023/11/11 01:21:56;;;;;;;0.10;0.10;;;;;;;4.26;86.30;99817.28;4985260;28;20085;-69
2023/11/11 01:24:22;;;;;;;0.10;0.10;;;;;;;4.25;86.45;99812.94;4965173;28;20047;-69
2023/11/11 01:26:49;;;;;;;0.10;0.10;;;;;;;4.28;86.09;99817.03;4964744;28;20037;-69
2023/11/11 01:29:15;;;;;;;0.10;0.10;;;;;;;4.30;86.47;99813.03;4962883;28;20096;-69
2023/11/11 01:31:41;;;;;;;0.10;0.10;;;;;;;4.32;86.35;99802.00;4943018;28;20050;-69
2023/11/11 01:34:08;;;;;;;0.10;0.10;;;;;;;4.28;86.01;99812.47;4959596;28;20082;-68
2023/11/11 01:36:36;;;;;;;0.10;0.10;;;;;;;4.28;86.00;99814.31;4959813;28;20510;-69
2023/11/11 01:39:03;;;;;;;0.10;0.10;;;;;;;4.26;86.44;99820.00;4967165;28;20130;-69
2023/11/11 01:41:29;;;;;;;0.10;0.10;;;;;;;4.23;86.17;99802.31;4980168;28;20061;-69
2023/11/11 01:43:55;;;;;;;0.10;0.10;;;;;;;4.20;86.59;99801.97;4978674;28;20502;-69
2023/11/11 01:46:23;;;;;;;0.10;0.10;;;;;;;4.20;86.35;99804.66;4962530;28;20533;-69
2023/11/11 01:48:51;;;;;;;0.10;0.10;;;;;;;4.15;86.57;99802.69;4960006;28;20620;-69
2023/11/11 01:51:17;;;;;;;0.10;0.10;;;;;;;4.14;86.51;99811.00;4949920;28;20485;-69
2023/11/11 01:53:45;;;;;;;0.10;0.10;;;;;;;4.08;86.50;99794.66;4963368;28;20142;-69
2023/11/11 01:56:13;;;;;;;0.10;0.10;;;;;;;4.07;86.45;99794.88;4962176;28;20080;-69
2023/11/11 01:58:41;;;;;;;0.10;0.10;;;;;;;4.08;86.66;99805.47;4962748;28;20061;-68
2023/11/11 02:01:07;;;;;;;;;;;;;;;4.11;86.63;99802.31;4961174;28;20062;-69
2023/11/11 02:03:35;;;;;;;0.00;0.00;;;;;;;4.10;86.55;99794.41;4976654;28;20567;-69
2023/11/11 02:06:01;;;;;;;0.10;0.10;;;;;;;4.13;87.11;99796.66;4972087;28;20251;-69
2023/11/11 02:08:31;;;;;;;0.10;0.10;;;;;;;4.14;87.09;99797.50;4970598;28;20057;-69
2023/11/11 02:10:59;;;;;;;0.10;0.10;;;;;;;4.14;87.03;99792.06;4975770;28;20397;-69
2023/11/11 02:13:28;;;;;;;0.10;0.10;;;;;;;4.12;87.29;99797.69;4958810;28;20054;-69
2023/11/11 02:15:55;;;;;;;0.10;0.10;;;;;;;4.13;88.25;99806.66;4956693;28;20059;-70
2023/11/11 02:18:22;;;;;;;0.10;0.10;;;;;;;4.14;87.89;99784.78;4960580;28;20051;-70
2023/11/11 02:20:49;;;;;;;0.10;0.10;;;;;;;4.15;87.69;99799.13;4963744;28;20141;-69
2023/11/11 02:23:16;;;;;;;0.20;0.20;;;;;;;4.17;87.19;99800.56;4964597;28;20063;-71
2023/11/11 02:25:44;;;;;;;0.10;0.10;;;;;;;4.15;87.21;99796.44;4960655;28;20631;-69
2023/11/11 02:28:11;;;;;;;0.10;0.10;;;;;;;4.17;86.78;99791.59;4961229;28;20497;-70
2023/11/11 02:30:37;;;;;;;0.10;0.10;;;;;;;4.17;87.15;99797.84;4962451;28;20237;-70
2023/11/11 02:33:03;;;;;;;0.10;0.10;;;;;;;4.21;87.16;99790.91;4961957;28;20077;-71
2023/11/11 02:35:30;;;;;;;0.10;0.10;;;;;;;4.21;87.21;99798.19;4960337;28;20047;-70
2023/11/11 02:37:56;;;;;;;0.10;0.10;;;;;;;4.26;87.58;99784.81;4979919;28;20597;-70
2023/11/11 02:40:22;;;;;;;0.10;0.10;;;;;;;4.30;87.49;99783.28;4939470;28;20047;-70
2023/11/11 02:42:50;;;;;;;0.10;0.10;;;;;;;4.33;87.15;99792.81;4957416;28;20507;-70
2023/11/11 02:45:17;;;;;;;0.10;0.10;;;;;;;4.35;87.51;99790.69;4959698;28;20057;-70
2023/11/11 02:47:44;;;;;;;0.10;0.10;;;;;;;4.39;87.33;99778.34;4959975;28;20058;-71
2023/11/11 02:50:10;;;;;;;0.10;0.10;;;;;;;4.43;86.64;99789.53;4977170;28;20069;-70
2023/11/11 02:52:37;;;;;;;0.10;0.10;;;;;;;4.42;86.57;99787.88;4968366;28;20142;-70
2023/11/11 02:55:04;;;;;;;0.10;0.10;;;;;;;4.46;86.84;99797.19;4975114;28;20053;-70
2023/11/11 02:57:30;;;;;;;0.10;0.10;;;;;;;4.46;86.38;99789.88;4963208;28;20082;-71
2023/11/11 02:59:59;;;;;;;0.10;0.10;;;;;;;4.46;86.56;99784.47;4967629;28;20127;-70
2023/11/11 03:02:25;;;;;;;0.10;0.10;;;;;;;4.42;86.40;99788.69;4965695;28;20055;-70
2023/11/11 03:04:52;;;;;;;0.10;0.10;;;;;;;4.46;86.52;99787.19;4959883;28;20050;-70
2023/11/11 03:07:19;;;;;;;0.10;0.10;;;;;;;4.48;86.57;99784.22;4960333;28;20058;-70
2023/11/11 03:09:45;;;;;;;0.10;0.10;;;;;;;4.44;86.91;99778.44;4959215;28;20509;-71
2023/11/11 03:12:12;;;;;;;0.10;0.10;;;;;;;4.45;86.89;99796.38;4958120;28;20047;-70
2023/11/11 03:14:40;;;;;;;0.10;0.10;;;;;;;4.44;86.66;99786.56;4960496;28;20054;-70
2023/11/11 03:17:08;;;;;;;0.10;0.10;;;;;;;4.35;86.73;99786.09;4945567;28;20351;-69
2023/11/11 03:19:34;;;;;;;0.10;0.10;;;;;;;4.30;87.07;99785.97;4953633;28;20111;-69
2023/11/11 03:22:01;;;;;;;0.03;0.03;;;;;;;4.33;86.99;99790.91;4935285;28;20047;-69
2023/11/11 03:24:29;;;;;;;0.10;0.10;;;;;;;4.36;87.02;99793.16;4959462;28;20039;-69
2023/11/11 03:26:55;;;;;;;0.10;0.10;;;;;;;4.35;86.64;99791.50;4964989;28;20066;-71
2023/11/11 03:29:21;;;;;;;0.10;0.10;;;;;;;4.33;86.56;99782.00;4942911;28;20297;-70
2023/11/11 03:31:48;;;;;;;0.10;0.10;;;;;;;4.33;87.18;99784.69;4974156;28;20088;-70
2023/11/11 03:34:15;;;;;;;0.10;0.10;;;;;;;4.38;87.40;99782.09;4981025;28;20062;-70
2023/11/11 03:36:41;;;;;;;0.10;0.10;;;;;;;4.38;86.74;99782.94;4956447;28;20085;-70
2023/11/11 03:39:08;;;;;;;0.10;0.10;;;;;;;4.34;87.08;99760.09;4959349;28;20138;-70
2023/11/11 03:41:34;;;;;;;0.10;0.10;;;;;;;4.39;87.03;99765.63;4942457;28;20501;-69
2023/11/11 03:44:01;;;;;;;0.10;0.10;;;;;;;4.36;86.76;99767.97;4941480;28;20085;-69
2023/11/11 03:46:27;;;;;;;0.10;0.10;;;;;;;4.39;86.89;99779.19;4922211;29;20097;-69
2023/11/11 03:48:55;;;;;;;0.10;0.10;;;;;;;4.37;86.63;99780.47;4975163;28;20070;-70
2023/11/11 03:51:22;;;;;;;;;;;;;;;4.34;87.00;99784.44;4958456;28;20065;-70
2023/11/11 03:53:48;;;;;;;0.10;0.10;;;;;;;4.33;87.14;99771.97;4959833;28;20032;-69
2023/11/11 03:56:18;;;;;;;0.10;0.10;;;;;;;4.33;87.12;99788.22;4961459;28;20054;-70
2023/11/11 03:58:44;;;;;;;0.10;0.10;;;;;;;4.31;86.48;99803.88;4960157;28;20050;-70
2023/11/11 04:01:11;;;;;;;0.10;0.10;;;;;;;4.26;86.69;99792.94;4971844;28;20119;-70
2023/11/11 04:03:39;;;;;;;0.10;0.10;;;;;;;4.21;86.73;99795.47;4959052;28;20054;-69
2023/11/11 04:06:06;;;;;;;0.10;0.10;;;;;;;4.18;87.10;99794.09;4956801;28;20058;-69
2023/11/11 04:08:34;;;;;;;0.10;0.10;;;;;;;4.16;87.30;99789.97;4960701;28;20092;-69
2023/11/11 04:11:09;;;;;;;0.10;0.10;;;;;;;4.16;87.29;99801.63;4956947;28;20141;-69
2023/11/11 04:13:39;;;;;;;0.10;0.10;;;;;;;4.16;87.43;99803.47;4974717;28;20089;-69
2023/11/11 04:16:06;;;;;;;0.10;0.10;;;;;;;4.16;87.37;99792.66;4958407;28;20382;-69
2023/11/11 04:18:33;;;;;;;0.10;0.10;;;;;;;4.16;87.28;99789.97;4952829;28;20088;-69
2023/11/11 04:21:00;;;;;;;0.10;0.10;;;;;;;4.17;87.05;99795.16;4959053;28;20050;-69
2023/11/11 04:23:28;;;;;;;0.10;0.10;;;;;;;4.18;87.70;99791.38;4963218;28;20153;-69
2023/11/11 04:25:56;;;;;;;0.10;0.10;;;;;;;4.17;87.53;99788.91;4967570;28;20057;-71
2023/11/11 04:28:23;;;;;;;0.10;0.10;;;;;;;4.24;87.23;99805.88;4942569;28;20126;-70
2023/11/11 04:30:49;;;;;;;0.10;0.10;;;;;;;4.22;87.59;99791.75;4961135;28;20065;-71
2023/11/11 04:33:16;;;;;;;0.10;0.10;;;;;;;4.23;87.73;99805.03;4961066;28;20137;-71
2023/11/11 04:35:42;;;;;;;0.10;0.10;;;;;;;4.22;87.65;99784.44;4960662;28;20531;-71
2023/11/11 04:38:09;;;;;;;0.10;0.10;;;;;;;4.28;87.87;99798.94;4960898;28;20063;-71
2023/11/11 04:40:36;;;;;;;0.10;0.10;;;;;;;4.29;87.44;99789.75;4960924;28;20069;-70
2023/11/11 04:43:04;;;;;;;0.10;0.10;;;;;;;4.29;86.90;99788.91;4966765;28;20112;-71
2023/11/11 04:45:30;;;;;;;0.10;0.10;;;;;;;4.26;87.19;99779.38;4957570;28;20053;-70
2023/11/11 04:47:57;;;;;;;0.10;0.10;;;;;;;4.26;87.28;99791.03;4957350;28;20062;-71
2023/11/11 04:50:24;;;;;;;0.10;0.10;;;;;;;4.29;87.23;99783.50;4961397;28;20051;-71
2023/11/11 04:52:51;;;;;;;0.10;0.10;;;;;;;4.30;87.45;99790.59;4974154;28;20047;-70
2023/11/11 04:55:18;;;;;;;0.10;0.10;;;;;;;4.25;87.31;99789.38;4956852;28;20062;-71
2023/11/11 04:57:45;;;;;;;0.10;0.10;;;;;;;4.27;87.46;99791.88;4974332;28;20070;-71
2023/11/11 05:00:14;;;;;;;0.10;0.10;;;;;;;4.30;87.62;99801.41;4945309;28;20042;-71
2023/11/11 05:02:40;;;;;;;0.10;0.10;;;;;;;4.32;87.29;99808.22;4964637;28;20073;-70
2023/11/11 05:05:10;;;;;;;0.10;0.10;;;;;;;4.25;87.25;99793.97;4979269;28;20116;-70
2023/11/11 05:07:37;;;;;;;0.10;0.10;;;;;;;4.32;87.56;99821.75;4964770;28;20047;-70
2023/11/11 05:10:05;;;;;;;0.10;0.10;;;;;;;4.34;87.73;99816.13;4963873;28;20514;-70
2023/11/11 05:12:35;;;;;;;0.10;0.10;;;;;;;4.31;87.40;99817.41;4960557;28;20042;-70
2023/11/11 05:15:04;;;;;;;0.10;0.10;;;;;;;4.29;87.38;99811.41;4960423;28;20042;-70
2023/11/11 05:17:33;;;;;;;0.10;0.10;;;;;;;4.35;87.57;99812.34;4964009;28;20054;-70
2023/11/11 05:19:59;;;;;;;0.10;0.10;;;;;;;4.36;87.40;99806.69;4965672;28;20053;-70
2023/11/11 05:22:26;;;;;;;0.10;0.10;;;;;;;4.40;87.35;99805.19;4976773;28;20042;-70
2023/11/11 05:24:52;;;;;;;0.10;0.10;;;;;;;4.37;87.74;99797.53;4960577;28;20111;-70
2023/11/11 05:27:18;;;;;;;0.10;0.10;;;;;;;4.38;87.60;99807.31;4966982;28;20046;-70
2023/11/11 05:29:45;;;;;;;0.10;0.10;;;;;;;4.44;87.39;99800.09;4959591;28;20535;-70
2023/11/11 05:32:11;;;;;;;0.10;0.10;;;;;;;4.45;87.22;99804.50;4956186;28;20188;-70
2023/11/11 05:34:39;;;;;;;0.10;0.10;;;;;;;4.48;87.49;99801.31;4960825;28;20085;-71
2023/11/11 05:37:05;;;;;;;;;;;;;;;4.51;87.48;99818.94;4962421;28;20491;-70
2023/11/11 05:39:31;;;;;;;0.10;0.10;;;;;;;4.52;87.21;99796.22;4960789;28;20400;-70
2023/11/11 05:41:57;;;;;;;0.10;0.10;;;;;;;4.52;86.98;99809.75;4962959;28;20053;-70
2023/11/11 05:44:24;;;;;;;0.10;0.10;;;;;;;4.54;87.12;99818.50;4961605;28;20075;-70
2023/11/11 05:46:50;;;;;;;0.22;0.20;;;;;;;4.57;87.01;99806.34;4959245;28;20066;-70
2023/11/11 05:49:16;;;;;;;0.10;0.10;;;;;;;4.57;86.96;99809.91;4960907;28;20125;-70
2023/11/11 05:51:45;;;;;;;0.10;0.10;;;;;;;4.58;86.82;99811.56;4960419;28;20169;-70
2023/11/11 05:54:11;;;;;;;0.10;0.10;;;;;;;4.58;86.93;99816.13;4949129;28;20066;-69
2023/11/11 05:56:40;;;;;;;0.10;0.10;;;;;;;4.59;86.93;99813.19;4965118;28;20054;-69
2023/11/11 05:59:07;;;;;;;0.10;0.10;;;;;;;4.65;87.02;99817.66;4968739;28;20046;-69
2023/11/11 06:01:33;;;;;;;0.10;0.10;;;;;;;4.66;86.52;99813.09;4961661;28;20477;-68
2023/11/11 06:04:00;;;;;;;0.10;0.10;;;;;;;4.70;86.50;99816.97;4976596;28;20421;-69
2023/11/11 06:06:26;;;;;;;0.10;0.10;;;;;;;4.78;86.64;99813.09;4975190;28;20417;-68
2023/11/11 06:08:54;;;;;;;0.10;0.10;;;;;;;4.80;86.18;99810.97;4960618;28;20065;-69
2023/11/11 06:11:21;;;;;;;;;;;;;;;4.81;86.09;99818.88;4962942;28;20085;-69
2023/11/11 06:13:47;;;;;;;0.10;0.10;;;;;;;4.79;85.77;99817.44;4962482;28;19948;-69
2023/11/11 06:16:13;;;;;;;0.10;0.10;;;;;;;4.86;86.20;99825.44;4961466;28;20092;-69
2023/11/11 06:18:39;;;;;;;0.10;0.10;;;;;;;4.90;85.76;99830.16;4957958;28;20043;-69
2023/11/11 06:21:08;;;;;;;0.22;0.10;;;;;;;4.88;85.95;99842.28;4957593;28;20120;-69
2023/11/11 06:23:34;;;;;;;0.10;0.10;;;;;;;4.85;85.72;99838.19;4963883;28;20051;-69
2023/11/11 06:26:02;;;;;;;0.10;0.10;;;;;;;4.87;85.48;99846.06;4959464;28;20055;-68
2023/11/11 06:28:28;;;;;;;0.10;0.10;;;;;;;4.80;85.24;99835.34;4961058;28;20038;-69
2023/11/11 06:30:54;;;;;;;0.10;0.10;;;;;;;4.82;85.52;99846.75;4962368;28;20043;-69
2023/11/11 06:33:20;;;;;;;0.30;0.20;;;;;;;4.82;85.65;99852.19;4961732;28;20123;-68
2023/11/11 06:35:47;;;;;;;0.10;0.10;;;;;;;4.87;85.85;99844.19;4960564;28;20043;-69
2023/11/11 06:38:13;;;;;;;0.10;0.10;;;;;;;4.90;85.64;99851.00;4960136;28;20046;-69
2023/11/11 06:40:39;;;;;;;0.10;0.10;;;;;;;4.94;85.95;99844.06;4943807;28;20506;-69
2023/11/11 06:43:07;;;;;;;0.20;0.20;;;;;;;4.94;85.31;99831.34;4956169;28;20169;-69
2023/11/11 06:45:33;;;;;;;0.10;0.10;;;;;;;4.95;85.15;99827.56;4957093;28;20636;-69
2023/11/11 06:48:00;;;;;;;0.10;0.10;;;;;;;4.95;84.86;99827.56;4934937;28;20115;-68
2023/11/11 06:50:26;;;;;;;0.10;0.10;;;;;;;4.95;84.76;99824.84;4959615;28;20433;-69
2023/11/11 06:52:52;;;;;;;0.10;0.10;;;;;;;4.88;84.51;99834.16;4969187;28;20065;-69
2023/11/11 06:55:19;;;;;;;0.10;0.10;;;;;;;4.85;84.69;99816.50;4960997;28;20374;-69
2023/11/11 06:57:45;;;;;;;0.10;0.10;;;;;;;4.86;85.17;99815.44;4974976;28;20601;-70
2023/11/11 07:00:18;;;;;;;0.10;0.10;;;;;;;4.89;85.08;99819.56;4973275;28;20093;-69
2023/11/11 07:02:44;;;;;;;0.10;0.10;;;;;;;4.92;84.83;99821.81;4963634;28;20042;-70
2023/11/11 07:05:11;;;;;;;0.10;0.10;;;;;;;4.93;84.62;99823.47;4961160;28;20050;-71
2023/11/11 07:07:40;;;;;;;0.10;0.10;;;;;;;4.91;84.76;99822.84;4971375;28;20092;-70
2023/11/11 07:10:07;;;;;;;0.10;0.10;;;;;;;4.97;84.97;99824.63;4959250;28;20104;-70
2023/11/11 07:12:33;;;;;;;0.10;0.10;;;;;;;5.03;84.93;99820.16;4959770;28;20054;-69
2023/11/11 07:14:59;;;;;;;0.10;0.10;;;;;;;5.09;84.77;99811.06;4974605;28;20053;-70
2023/11/11 07:17:27;;;;;;;0.10;0.10;;;;;;;5.05;84.72;99816.13;4952547;28;20169;-70
2023/11/11 07:19:54;;;;;;;0.10;0.10;;;;;;;5.13;84.59;99822.25;4940614;28;20527;-70
2023/11/11 07:22:20;;;;;;;0.10;0.10;;;;;;;5.09;84.32;99827.31;4961403;28;20043;-70
2023/11/11 07:24:47;;;;;;;0.10;0.10;;;;;;;5.17;84.62;99816.13;4973224;28;20133;-70
2023/11/11 07:27:14;;;;;;;0.10;0.10;;;;;;;5.20;84.19;99826.47;4957128;28;20070;-71
2023/11/11 07:29:41;;;;;;;;;;;;;;;5.09;83.98;99809.19;4966447;28;20985;-70
2023/11/11 07:32:09;;;;;;;0.15;0.10;;;;;;;5.17;83.59;99821.53;4955284;28;19929;-69
2023/11/11 07:34:36;;;;;;;0.10;0.10;;;;;;;5.26;84.04;99827.41;4974955;28;20051;-70
2023/11/11 07:37:03;;;;;;;0.10;0.10;;;;;;;5.29;83.70;99818.81;4957244;28;20065;-69
2023/11/11 07:39:30;;;;;;;0.10;0.10;;;;;;;5.28;83.66;99824.44;4958732;28;20104;-69
2023/11/11 07:41:56;;;;;;;0.20;0.20;;;;;;;5.34;84.21;99829.75;4958921;28;20047;-70
2023/11/11 07:44:24;;;;;;;0.10;0.10;;;;;;;5.42;83.75;99827.72;4969720;28;20149;-70
2023/11/11 07:46:50;;;;;;;;;;;;;;;5.47;83.53;99835.97;4961239;28;20469;-70
2023/11/11 07:49:16;;;;;;;0.10;0.10;;;;;;;5.48;82.92;99833.03;4961561;28;19976;-71
2023/11/11 07:51:45;;;;;;;0.10;0.10;;;;;;;5.48;82.61;99841.16;4962682;28;20046;-70
2023/11/11 07:54:12;;;;;;;0.10;0.10;;;;;;;5.49;82.18;99834.66;4957162;28;20051;-70
2023/11/11 07:56:38;;;;;;;0.10;0.10;;;;;;;5.53;82.31;99824.16;4959331;28;20088;-70
2023/11/11 07:59:05;;;;;;;0.10;0.10;;;;;;;5.57;82.14;99821.78;5016397;28;20085;-70
2023/11/11 08:01:32;;;;;;;0.10;0.10;;;;;;;5.71;82.45;99822.34;4958355;28;20124;-70
2023/11/11 08:03:58;;;;;;;0.10;0.10;;;;;;;5.78;82.13;99821.13;4963724;28;20120;-70
2023/11/11 08:06:25;;;;;;;0.10;0.10;;;;;;;5.82;81.90;99826.88;4959810;28;20045;-70
2023/11/11 08:08:54;;;;;;;0.10;0.10;;;;;;;5.81;81.51;99820.63;4925941;28;20062;-70
2023/11/11 08:11:21;;;;;;;0.10;0.10;;;;;;;5.83;81.38;99828.53;4955551;28;20500;-69
2023/11/11 08:13:47;;;;;;;0.10;0.10;;;;;;;5.85;81.18;99837.25;4958939;28;20085;-70
2023/11/11 08:16:14;;;;;;;0.10;0.10;;;;;;;5.82;80.96;99826.88;4960037;28;20043;-69
2023/11/11 08:18:41;;;;;;;0.10;0.10;;;;;;;5.93;80.86;99827.88;4935626;28;20053;-70
2023/11/11 08:21:07;;;;;;;0.10;0.10;;;;;;;5.92;80.36;99840.66;4956637;28;20054;-69
2023/11/11 08:23:34;;;;;;;0.10;0.10;;;;;;;5.91;80.35;99838.16;4958672;28;20549;-70
2023/11/11 08:26:02;;;;;;;0.10;0.10;;;;;;;5.93;80.65;99836.03;4955872;28;20038;-70
2023/11/11 08:28:30;;;;;;;0.15;0.10;;;;;;;5.96;80.56;99825.50;4955701;28;20475;-70
2023/11/11 08:30:56;;;;;;;0.10;0.10;;;;;;;6.01;80.27;99818.53;4958231;28;20490;-70
2023/11/11 08:33:22;;;;;;;0.10;0.10;;;;;;;6.07;80.08;99820.31;4962173;28;20047;-70
2023/11/11 08:35:50;;;;;;;0.10;0.10;;;;;;;6.13;79.74;99827.47;4960428;28;20382;-70
2023/11/11 08:38:19;;;;;;;0.10;0.10;;;;;;;6.13;79.52;99815.78;4961464;28;20055;-69
2023/11/11 08:40:46;;;;;;;0.10;0.10;;;;;;;6.10;80.05;99817.09;4982461;28;20052;-70
2023/11/11 08:43:14;;;;;;;0.10;0.10;;;;;;;6.19;79.43;99817.53;4958567;28;20055;-69
2023/11/11 08:45:40;;;;;;;0.10;0.10;;;;;;;6.18;79.34;99822.16;4964169;28;20051;-69
2023/11/11 08:48:07;;;;;;;0.10;0.10;;;;;;;6.20;79.36;99814.56;4962615;28;20050;-71
2023/11/11 08:50:33;;;;;;;0.10;0.10;;;;;;;6.29;78.67;99822.31;4960202;28;20081;-71
2023/11/11 08:52:59;;;;;;;0.10;0.10;;;;;;;6.29;78.19;99815.00;4960395;28;20062;-71
2023/11/11 08:55:25;;;;;;;0.10;0.10;;;;;;;6.36;78.35;99803.97;4959858;28;20042;-69
2023/11/11 08:57:52;;;;;;;0.10;0.10;;;;;;;6.50;77.79;99805.28;4975154;28;20145;-72
2023/11/11 09:00:20;;;;;;;0.10;0.10;;;;;;;6.56;77.42;99803.47;4934705;28;20524;-70
2023/11/11 09:02:46;;;;;;;0.10;0.10;;;;;;;6.63;77.25;99795.13;4964984;28;20050;-71
2023/11/11 09:05:12;;;;;;;0.10;0.10;;;;;;;6.65;77.53;99801.97;4967400;28;20054;-70
2023/11/11 09:07:39;;;;;;;0.10;0.10;;;;;;;6.70;77.47;99800.38;4967961;28;20039;-69
2023/11/11 09:10:06;;;;;;;0.20;0.20;;;;;;;6.76;76.83;99791.25;4962351;28;20523;-69
2023/11/11 09:12:32;;;;;;;0.10;0.10;;;;;;;6.69;76.40;99815.88;4960592;28;20051;-69
2023/11/11 09:14:59;;;;;;;0.10;0.10;;;;;;;6.51;76.35;99808.81;4962939;28;20050;-69
2023/11/11 09:17:27;;;;;;;0.10;0.10;;;;;;;6.36;76.34;99814.84;4960482;28;20050;-71
2023/11/11 09:19:53;;;;;;;0.10;0.10;;;;;;;6.26;77.17;99796.47;4957035;28;20061;-69
2023/11/11 09:22:20;;;;;;;0.10;0.10;;;;;;;6.24;77.36;99796.72;4960806;28;20054;-70
2023/11/11 09:24:46;;;;;;;0.10;0.10;;;;;;;6.19;77.59;99793.91;4959009;28;20540;-70
2023/11/11 09:27:12;;;;;;;0.10;0.10;;;;;;;6.15;77.40;99794.66;4966558;28;20043;-70
2023/11/11 09:29:39;;;;;;;0.10;0.10;;;;;;;6.10;77.91;99779.94;4960529;28;20054;-70
2023/11/11 09:32:06;;;;;;;0.15;0.15;;;;;;;6.16;77.73;99790.88;4960005;28;20092;-69
2023/11/11 09:34:33;;;;;;;0.10;0.10;;;;;;;6.17;77.81;99779.78;4958024;28;20560;-70
2023/11/11 09:37:00;;;;;;;0.10;0.10;;;;;;;6.21;77.83;99778.19;4957873;28;20169;-71
2023/11/11 09:39:27;;;;;;;0.10;0.10;;;;;;;6.21;77.67;99775.50;4958037;28;20055;-70
2023/11/11 09:41:54;;;;;;;0.10;0.10;;;;;;;6.17;77.55;99777.06;4955627;28;20683;-69
2023/11/11 09:44:21;;;;;;;0.10;0.10;;;;;;;6.19;77.97;99771.38;4957809;28;20054;-69
2023/11/11 09:46:54;;;;;;;0.10;0.10;;;;;;;6.24;77.94;99780.41;4961805;28;20051;-69
2023/11/11 09:49:21;;;;;;;0.10;0.10;;;;;;;6.28;77.66;99769.06;4959522;28;20142;-70
2023/11/11 09:51:49;;;;;;;0.10;0.10;;;;;;;6.32;77.61;99781.06;4959526;28;20356;-69
2023/11/11 09:54:15;;;;;;;0.10;0.10;;;;;;;6.27;77.48;99768.25;4960555;28;20070;-69
2023/11/11 09:56:43;;;;;;;0.10;0.10;;;;;;;6.41;77.72;99771.44;4962592;28;20435;-69
2023/11/11 09:59:10;;;;;;;0.10;0.10;;;;;;;6.48;77.07;99763.13;4963518;28;20066;-69
2023/11/11 10:01:38;;;;;;;0.10;0.10;;;;;;;6.55;76.84;99769.19;4958401;28;20519;-69
2023/11/11 10:04:04;;;;;;;0.10;0.10;;;;;;;6.55;76.57;99761.06;4960596;28;20066;-69
2023/11/11 10:06:31;;;;;;;0.10;0.10;;;;;;;6.65;76.57;99757.69;4960526;28;20108;-69
2023/11/11 10:09:00;;;;;;;0.10;0.10;;;;;;;6.77;76.20;99763.00;4965454;28;20047;-69
2023/11/11 10:11:26;;;;;;;0.17;0.17;;;;;;;6.82;75.78;99757.63;4961860;28;20061;-69
2023/11/11 10:13:54;;;;;;;0.10;0.10;;;;;;;6.95;75.61;99757.28;4960100;28;21056;-69
2023/11/11 10:16:22;;;;;;;0.20;0.20;;;;;;;7.08;74.68;99756.06;4957706;28;20138;-69
2023/11/11 10:18:49;;;;;;;0.10;0.10;;;;;;;7.19;74.58;99753.47;4970152;28;20102;-69
2023/11/11 10:21:16;;;;;;;0.10;0.10;;;;;;;7.09;73.95;99760.44;4963633;28;20066;-69
2023/11/11 10:23:44;;;;;;;0.10;0.10;;;;;;;7.03;74.67;99749.78;4961145;28;20561;-69
2023/11/11 10:26:12;;;;;;;0.10;0.10;;;;;;;7.07;74.62;99757.16;4961664;28;20073;-69
2023/11/11 10:28:38;;;;;;;;;;;;;;;7.14;74.53;99758.88;4959348;28;20047;-70
2023/11/11 10:31:06;;;;;;;0.10;0.10;;;;;;;7.06;74.12;99760.13;4956504;28;20034;-69
2023/11/11 10:33:32;;;;;;;;;;;;;;;7.09;74.17;99752.28;4959233;28;20306;-70
2023/11/11 10:35:58;;;;;;;0.10;0.10;;;;;;;7.11;74.01;99754.75;4967958;28;20427;-70
2023/11/11 10:38:24;;;;;;;0.10;0.10;;;;;;;7.06;74.23;99751.97;4970043;28;20053;-69
2023/11/11 10:40:50;;;;;;;0.10;0.10;;;;;;;7.02;73.91;99750.81;4956633;28;20073;-69
2023/11/11 10:43:19;;;;;;;0.10;0.10;;;;;;;6.92;74.51;99746.06;4958023;28;20870;-70
2023/11/11 10:45:46;;;;;;;0.10;0.10;;;;;;;7.04;74.44;99744.06;4959058;28;20054;-70
2023/11/11 10:48:13;;;;;;;0.22;0.20;;;;;;;7.15;74.27;99733.31;4957577;28;20142;-70
2023/11/11 10:50:42;;;;;;;0.10;0.10;;;;;;;7.31;74.06;99731.59;4960531;28;20066;-70
2023/11/11 10:53:09;;;;;;;0.10;0.10;;;;;;;7.42;72.94;99743.44;4975554;28;20406;-69
2023/11/11 10:55:38;;;;;;;0.10;0.10;;;;;;;7.34;73.14;99736.53;4957971;28;20531;-69
2023/11/11 10:58:06;;;;;;;0.10;0.10;;;;;;;7.26;73.35;99750.56;4960962;28;20050;-69
2023/11/11 11:00:36;;;;;;;0.10;0.10;;;;;;;7.30;73.35;99732.66;4961757;28;20062;-69
2023/11/11 11:03:04;;;;;;;0.10;0.10;;;;;;;7.50;73.08;99726.63;4959966;28;20509;-69
2023/11/11 11:05:40;;;;;;;0.10;0.10;;;;;;;7.64;72.85;99722.44;4961823;28;20066;-69
2023/11/11 11:08:14;;;;;;;0.20;0.20;;;;;;;7.69;71.98;99726.28;4962292;28;20106;-69
2023/11/11 11:10:54;;;;;;;0.30;0.30;;;;;;;7.99;71.93;99727.63;4957342;28;20133;-69
2023/11/11 11:13:22;;;;;;;0.20;0.20;;;;;;;8.65;69.07;99723.75;4964258;28;20518;-69
2023/11/11 11:15:50;;;;;;;0.20;0.20;;;;;;;8.99;67.71;99730.75;4961692;28;20312;-69
2023/11/11 11:18:24;;;;;;;0.20;0.20;;;;;;;9.05;66.81;99733.25;4958163;28;20513;-69
2023/11/11 11:20:53;;;;;;;0.10;0.10;;;;;;;8.83;67.04;99730.69;4960140;28;20113;-68
2023/11/11 11:23:21;;;;;;;0.20;0.20;;;;;;;8.72;67.38;99732.53;4963036;28;20053;-70
2023/11/11 11:25:50;;;;;;;0.20;0.20;;;;;;;8.66;67.58;99730.84;4959044;28;20073;-69
2023/11/11 11:28:24;;;;;;;0.20;0.20;;;;;;;8.56;68.27;99730.81;4959679;28;20047;-68
2023/11/11 11:30:54;;;;;;;0.20;0.20;;;;;;;8.61;67.63;99718.03;4963810;28;20441;-68
2023/11/11 11:33:24;;;;;;;0.20;0.20;;;;;;;8.68;67.52;99725.16;4962696;28;20612;-69
2023/11/11 11:35:53;;;;;;;0.20;0.20;;;;;;;8.75;67.17;99736.66;4961885;28;20043;-69
2023/11/11 11:38:25;;;;;;;0.20;0.20;;;;;;;8.82;66.50;99725.47;4941679;28;20105;-70
2023/11/11 11:40:53;;;;;;;0.20;0.20;;;;;;;8.91;66.03;99708.38;4959747;28;20414;-70
2023/11/11 11:43:26;;;;;;;0.20;0.20;;;;;;;9.09;66.10;99714.44;4954861;28;20130;-69